createdAt,value
2023-02-28T00:01:07.862Z,101836.58
2023-02-28T00:03:20.428Z,101833.44
2023-02-28T00:05:33.570Z,101833.71
2023-02-28T00:07:48.548Z,101834.80
2023-02-28T00:10:01.637Z,101830.41
2023-02-28T00:12:14.151Z,101831.11
2023-02-28T00:14:26.754Z,101833.33
2023-02-28T00:16:39.386Z,101831.90
2023-02-28T00:18:52.059Z,101832.80
2023-02-28T00:21:05.446Z,101832.74
2023-02-28T00:23:18.048Z,101832.78
2023-02-28T00:25:30.631Z,101833.60
2023-02-28T00:27:43.602Z,101829.54
2023-02-28T00:29:56.224Z,101827.20
2023-02-28T00:32:08.886Z,101826.20
2023-02-28T00:34:21.546Z,101824.04
2023-02-28T00:36:34.130Z,101823.95
2023-02-28T00:38:46.690Z,101825.81
2023-02-28T00:41:05.348Z,101823.86
2023-02-28T00:43:18.023Z,101817.53
2023-02-28T00:45:31.173Z,101820.66
2023-02-28T00:47:43.763Z,101820.95
2023-02-28T00:49:56.553Z,101819.66
2023-02-28T00:52:09.183Z,101820.39
2023-02-28T00:54:22.842Z,101818.45
2023-02-28T00:56:35.332Z,101817.70
2023-02-28T00:58:47.930Z,101817.02
2023-02-28T01:01:00.923Z,101813.66
2023-02-28T01:03:13.494Z,101812.84
2023-02-28T01:05:26.161Z,101820.11
2023-02-28T01:07:39.413Z,101818.55
2023-02-28T01:09:52.058Z,101820.14
2023-02-28T01:12:04.871Z,101819.65
2023-02-28T01:14:19.259Z,101821.40
2023-02-28T01:16:31.956Z,101816.39
2023-02-28T01:18:44.746Z,101821.05
2023-02-28T01:20:57.308Z,101819.05
2023-02-28T01:23:10.082Z,101814.93
2023-02-28T01:25:22.635Z,101815.63
2023-02-28T01:27:37.737Z,101816.90
2023-02-28T01:29:51.909Z,101819.27
2023-02-28T01:32:04.815Z,101816.39
2023-02-28T01:34:20.240Z,101817.13
2023-02-28T01:36:32.822Z,101816.89
2023-02-28T01:38:46.446Z,101816.59
2023-02-28T01:40:59.125Z,101818.55
2023-02-28T01:43:25.186Z,101816.33
2023-02-28T01:45:38.263Z,101811.19
2023-02-28T01:47:56.206Z,101814.78
2023-02-28T01:50:16.165Z,101811.77
2023-02-28T01:52:29.898Z,101814.14
2023-02-28T01:54:42.550Z,101809.40
2023-02-28T01:57:04.789Z,101807.61
2023-02-28T01:59:33.097Z,101805.92
2023-02-28T02:01:46.711Z,101811.75
2023-02-28T02:04:03.289Z,101818.18
2023-02-28T02:06:15.909Z,101819.56
2023-02-28T02:08:30.191Z,101813.23
2023-02-28T02:10:58.139Z,101812.52
2023-02-28T02:13:19.896Z,101813.42
2023-02-28T02:15:45.265Z,101809.68
2023-02-28T02:18:05.846Z,101811.48
2023-02-28T02:20:35.867Z,101807.67
2023-02-28T02:23:15.127Z,101812.71
2023-02-28T02:25:51.384Z,101806.55
2023-02-28T02:28:22.606Z,101806.38
2023-02-28T02:31:03.359Z,101806.69
2023-02-28T02:33:53.529Z,101804.95
2023-02-28T02:36:38.705Z,101805.48
2023-02-28T02:39:10.793Z,101803.61
2023-02-28T02:41:34.464Z,101805.68
2023-02-28T02:44:04.503Z,101805.14
2023-02-28T02:46:38.328Z,101803.52
2023-02-28T02:48:53.106Z,101801.77
2023-02-28T02:51:12.854Z,101800.90
2023-02-28T02:53:31.790Z,101798.59
2023-02-28T02:55:48.274Z,101800.25
2023-02-28T02:58:05.567Z,101799.14
2023-02-28T03:00:23.203Z,101797.91
2023-02-28T03:02:38.812Z,101796.95
2023-02-28T03:05:03.946Z,101798.29
2023-02-28T03:07:16.545Z,101796.48
2023-02-28T03:09:29.144Z,101799.92
2023-02-28T03:11:43.205Z,101800.50
2023-02-28T03:14:05.014Z,101801.14
2023-02-28T03:16:29.983Z,101798.77
2023-02-28T03:18:58.595Z,101799.09
2023-02-28T03:21:30.270Z,101802.59
2023-02-28T03:23:50.809Z,101799.89
2023-02-28T03:26:08.665Z,101800.73
2023-02-28T03:28:24.164Z,101802.38
2023-02-28T03:31:18.415Z,101804.80
2023-02-28T03:33:40.290Z,101810.08
2023-02-28T03:35:57.934Z,101811.55
2023-02-28T03:38:17.974Z,101813.35
2023-02-28T03:40:34.292Z,101811.62
2023-02-28T03:42:50.367Z,101815.64
2023-02-28T03:45:13.210Z,101811.88
2023-02-28T03:47:32.640Z,101815.71
2023-02-28T03:49:54.899Z,101822.31
2023-02-28T03:52:09.237Z,101819.35
2023-02-28T03:54:32.005Z,101817.23
2023-02-28T03:56:53.897Z,101820.73
2023-02-28T03:59:14.050Z,101820.23
2023-02-28T04:01:36.294Z,101821.97
2023-02-28T04:03:50.639Z,101820.88
2023-02-28T04:06:05.049Z,101826.77
2023-02-28T04:08:17.839Z,101824.80
2023-02-28T04:10:31.733Z,101826.80
2023-02-28T04:12:44.266Z,101825.37
2023-02-28T04:14:56.834Z,101824.58
2023-02-28T04:17:09.347Z,101827.30
2023-02-28T04:19:21.992Z,101832.34
2023-02-28T04:21:37.145Z,101831.63
2023-02-28T04:23:49.721Z,101833.86
2023-02-28T04:26:02.410Z,101832.84
2023-02-28T04:28:14.994Z,101835.61
2023-02-28T04:30:27.688Z,101835.14
2023-02-28T04:32:40.411Z,101840.08
2023-02-28T04:34:53.081Z,101840.86
2023-02-28T04:37:13.306Z,101841.57
2023-02-28T04:39:26.479Z,101841.75
2023-02-28T04:41:39.089Z,101837.13
2023-02-28T04:43:53.454Z,101840.48
2023-02-28T04:46:06.452Z,101843.11
2023-02-28T04:48:21.338Z,101847.67
2023-02-28T04:50:34.876Z,101844.88
2023-02-28T04:52:47.656Z,101843.92
2023-02-28T04:55:00.814Z,101843.85
2023-02-28T04:57:13.483Z,101845.15
2023-02-28T04:59:26.036Z,101843.55
2023-02-28T05:01:38.578Z,101844.42
2023-02-28T05:03:52.460Z,101842.46
2023-02-28T05:06:05.349Z,101844.85
2023-02-28T05:08:17.973Z,101848.13
2023-02-28T05:10:30.693Z,101847.16
2023-02-28T05:12:43.284Z,101847.15
2023-02-28T05:14:55.926Z,101850.26
2023-02-28T05:17:09.536Z,101849.06
2023-02-28T05:19:22.407Z,101852.64
2023-02-28T05:21:51.477Z,101851.44
2023-02-28T05:24:11.157Z,101851.74
2023-02-28T05:26:23.900Z,101854.13
2023-02-28T05:28:36.547Z,101853.34
2023-02-28T05:30:49.318Z,101854.56
2023-02-28T05:33:01.867Z,101855.30
2023-02-28T05:35:14.386Z,101856.83
2023-02-28T05:37:26.961Z,101857.69
2023-02-28T05:39:39.627Z,101854.52
2023-02-28T05:41:52.153Z,101856.64
2023-02-28T05:44:04.854Z,101859.55
2023-02-28T05:46:17.933Z,101865.86
2023-02-28T05:48:30.491Z,101870.05
2023-02-28T05:50:43.685Z,101874.22
2023-02-28T05:52:56.259Z,101875.48
2023-02-28T05:55:09.470Z,101875.92
2023-02-28T05:57:24.860Z,101880.66
2023-02-28T05:59:40.734Z,101884.06
2023-02-28T06:01:54.211Z,101886.41
2023-02-28T06:04:14.323Z,101885.41
2023-02-28T06:06:32.219Z,101885.70
2023-02-28T06:08:45.772Z,101887.05
2023-02-28T06:10:58.402Z,101889.77
2023-02-28T06:13:11.030Z,101892.17
2023-02-28T06:15:23.784Z,101895.17
2023-02-28T06:17:36.344Z,101898.39
2023-02-28T06:19:49.108Z,101899.44
2023-02-28T06:22:01.748Z,101903.34
2023-02-28T06:24:14.309Z,101902.10
2023-02-28T06:26:27.440Z,101905.67
2023-02-28T06:28:40.017Z,101912.55
2023-02-28T06:30:53.013Z,101913.99
2023-02-28T06:33:06.097Z,101914.08
2023-02-28T06:35:19.146Z,101915.91
2023-02-28T06:37:32.528Z,101915.44
2023-02-28T06:39:45.365Z,101923.64
2023-02-28T06:41:58.504Z,101921.89
2023-02-28T06:44:16.152Z,101923.23
2023-02-28T06:46:28.763Z,101923.78
2023-02-28T06:48:42.082Z,101926.20
2023-02-28T06:51:06.376Z,101927.61
2023-02-28T06:53:19.000Z,101924.59
2023-02-28T06:55:32.177Z,101923.73
2023-02-28T06:57:44.726Z,101925.33
2023-02-28T07:00:02.494Z,101924.52
2023-02-28T07:02:15.074Z,101923.35
2023-02-28T07:04:28.721Z,101920.38
2023-02-28T07:06:41.403Z,101921.42
2023-02-28T07:08:55.167Z,101923.33
2023-02-28T07:11:07.674Z,101922.36
2023-02-28T07:13:20.289Z,101921.87
2023-02-28T07:15:32.906Z,101921.09
2023-02-28T07:17:45.397Z,101925.74
2023-02-28T07:19:57.929Z,101926.78
2023-02-28T07:22:10.672Z,101928.42
2023-02-28T07:24:26.728Z,101926.35
2023-02-28T07:26:39.312Z,101927.89
2023-02-28T07:28:51.932Z,101933.77
2023-02-28T07:31:08.518Z,101931.79
2023-02-28T07:33:21.332Z,101934.05
2023-02-28T07:35:34.192Z,101932.50
2023-02-28T07:37:48.021Z,101933.51
2023-02-28T07:40:00.617Z,101934.52
2023-02-28T07:42:13.823Z,101932.94
2023-02-28T07:44:27.410Z,101934.77
2023-02-28T07:46:39.998Z,101933.91
2023-02-28T07:48:53.793Z,101935.80
2023-02-28T07:51:06.632Z,101937.33
2023-02-28T07:53:19.137Z,101937.47
2023-02-28T07:55:31.710Z,101937.63
2023-02-28T07:57:44.509Z,101934.58
2023-02-28T07:59:57.077Z,101930.66
2023-02-28T08:02:17.487Z,101931.21
2023-02-28T08:04:33.154Z,101932.94
2023-02-28T08:06:46.106Z,101934.77
2023-02-28T08:08:58.628Z,101932.95
2023-02-28T08:11:11.285Z,101933.84
2023-02-28T08:13:23.960Z,101931.75
2023-02-28T08:15:37.236Z,101931.35
2023-02-28T08:17:49.801Z,101936.16
2023-02-28T08:20:02.456Z,101935.77
2023-02-28T08:22:15.190Z,101928.83
2023-02-28T08:24:27.861Z,101930.92
2023-02-28T08:26:40.534Z,101931.29
2023-02-28T08:28:53.205Z,101929.47
2023-02-28T08:31:14.449Z,101926.11
2023-02-28T08:33:28.667Z,101923.74
2023-02-28T08:35:41.292Z,101928.09
2023-02-28T08:37:53.821Z,101925.33
2023-02-28T08:40:07.102Z,101927.08
2023-02-28T08:42:19.676Z,101924.49
2023-02-28T08:44:32.368Z,101926.56
2023-02-28T08:46:44.978Z,101926.20
2023-02-28T08:49:02.834Z,101924.83
2023-02-28T08:51:22.988Z,101925.33
2023-02-28T08:53:40.303Z,101928.44
2023-02-28T08:56:00.990Z,101925.84
2023-02-28T08:58:13.546Z,101926.02
2023-02-28T09:00:26.191Z,101925.66
2023-02-28T09:02:39.347Z,101924.44
2023-02-28T09:04:52.036Z,101927.54
2023-02-28T09:07:04.636Z,101924.25
2023-02-28T09:09:17.226Z,101926.35
2023-02-28T09:11:29.799Z,101925.67
2023-02-28T09:13:42.421Z,101926.69
2023-02-28T09:15:58.526Z,101920.27
2023-02-28T09:18:11.778Z,101921.11
2023-02-28T09:20:24.456Z,101916.59
2023-02-28T09:22:36.974Z,101914.50
2023-02-28T09:24:49.507Z,101916.54
2023-02-28T09:27:05.447Z,101912.87
2023-02-28T09:29:18.523Z,101912.87
2023-02-28T09:31:31.103Z,101908.95
2023-02-28T09:33:43.647Z,101905.20
2023-02-28T09:36:01.828Z,101907.07
2023-02-28T09:38:14.581Z,101907.71
2023-02-28T09:40:27.471Z,101901.41
2023-02-28T09:42:40.050Z,101907.36
2023-02-28T09:44:52.778Z,101906.06
2023-02-28T09:47:45.646Z,101909.93
2023-02-28T09:50:02.339Z,101906.65
2023-02-28T09:52:20.389Z,101907.80
2023-02-28T09:54:34.138Z,101903.48
2023-02-28T09:56:53.241Z,101902.92
2023-02-28T09:59:33.861Z,101904.58
2023-02-28T10:02:19.705Z,101905.47
2023-02-28T10:04:52.609Z,101906.21
2023-02-28T10:07:20.925Z,101904.44
2023-02-28T10:09:36.591Z,101909.98
2023-02-28T10:11:51.552Z,101907.75
2023-02-28T10:14:13.639Z,101911.44
2023-02-28T10:16:37.083Z,101906.90
2023-02-28T10:18:59.694Z,101907.32
2023-02-28T10:21:27.580Z,101908.30
2023-02-28T10:23:40.292Z,101906.98
2023-02-28T10:26:11.936Z,101900.55
2023-02-28T10:28:27.173Z,101890.41
2023-02-28T10:30:46.401Z,101889.98
2023-02-28T10:32:59.137Z,101885.73
2023-02-28T10:35:21.420Z,101886.11
2023-02-28T10:37:39.065Z,101887.61
2023-02-28T10:39:51.865Z,101888.04
2023-02-28T10:42:05.390Z,101889.17
2023-02-28T10:44:24.309Z,101885.70
2023-02-28T10:46:37.088Z,101889.54
2023-02-28T10:49:02.109Z,101881.63
2023-02-28T10:51:20.158Z,101874.55
2023-02-28T10:53:44.737Z,101876.59
2023-02-28T10:56:10.080Z,101873.52
2023-02-28T10:58:24.628Z,101875.13
2023-02-28T11:00:37.164Z,101878.04
2023-02-28T11:02:49.840Z,101875.29
2023-02-28T11:05:02.903Z,101871.26
2023-02-28T11:07:23.205Z,101872.55
2023-02-28T11:09:42.059Z,101867.09
2023-02-28T11:11:54.822Z,101869.84
2023-02-28T11:14:20.563Z,101871.30
2023-02-28T11:16:38.012Z,101867.80
2023-02-28T11:18:54.703Z,101863.33
2023-02-28T11:21:08.760Z,101865.04
2023-02-28T11:23:22.320Z,101866.41
2023-02-28T11:25:39.036Z,101866.39
2023-02-28T11:27:57.945Z,101863.52
2023-02-28T11:30:35.117Z,101861.75
2023-02-28T11:32:51.085Z,101862.39
2023-02-28T11:35:18.057Z,101861.11
2023-02-28T11:37:33.412Z,101859.61
2023-02-28T11:39:47.369Z,101855.92
2023-02-28T11:42:27.572Z,101859.57
2023-02-28T11:45:04.048Z,101860.90
2023-02-28T11:47:42.347Z,101860.73
2023-02-28T11:50:21.244Z,101854.22
2023-02-28T11:52:45.748Z,101853.57
2023-02-28T11:55:09.665Z,101853.90
2023-02-28T11:57:45.705Z,101848.25
2023-02-28T12:00:34.565Z,101844.42
2023-02-28T12:02:50.274Z,101843.58
2023-02-28T12:05:17.794Z,101840.48
2023-02-28T12:07:54.380Z,101836.51
2023-02-28T12:10:22.408Z,101832.69
2023-02-28T12:13:04.971Z,101829.86
2023-02-28T12:15:28.927Z,101829.30
2023-02-28T12:17:56.129Z,101826.06
2023-02-28T12:20:24.078Z,101821.59
2023-02-28T12:23:11.331Z,101821.04
2023-02-28T12:25:53.324Z,101817.99
2023-02-28T12:28:10.898Z,101814.77
2023-02-28T12:30:33.412Z,101814.83
2023-02-28T12:32:56.364Z,101817.27
2023-02-28T12:35:21.967Z,101814.11
2023-02-28T12:37:44.577Z,101811.08
2023-02-28T12:40:07.133Z,101809.39
2023-02-28T12:42:29.399Z,101806.47
2023-02-28T12:44:47.393Z,101805.66
2023-02-28T12:47:05.735Z,101798.94
2023-02-28T12:49:42.199Z,101798.61
2023-02-28T12:51:54.940Z,101800.48
2023-02-28T12:54:28.503Z,101799.38
2023-02-28T12:57:14.126Z,101799.94
2023-02-28T12:59:45.087Z,101794.06
2023-02-28T13:02:22.296Z,101785.84
2023-02-28T13:04:56.467Z,101787.02
2023-02-28T13:07:18.013Z,101783.35
2023-02-28T13:09:31.332Z,101785.73
2023-02-28T13:11:47.728Z,101787.89
2023-02-28T13:14:05.800Z,101790.27
2023-02-28T13:16:18.711Z,101788.60
2023-02-28T13:18:40.388Z,101789.41
2023-02-28T13:20:53.117Z,101792.63
2023-02-28T13:23:38.081Z,101792.64
2023-02-28T13:25:54.312Z,101796.83
2023-02-28T13:28:12.541Z,101793.11
2023-02-28T13:30:53.576Z,101792.69
2023-02-28T13:33:24.251Z,101787.73
2023-02-28T13:35:43.806Z,101791.27
2023-02-28T13:38:14.770Z,101788.41
2023-02-28T13:40:29.645Z,101789.25
2023-02-28T13:42:46.072Z,101788.48
2023-02-28T13:45:23.086Z,101789.20
2023-02-28T13:47:48.878Z,101782.81
2023-02-28T13:50:22.987Z,101784.14
2023-02-28T13:52:49.771Z,101783.19
2023-02-28T13:55:16.984Z,101778.39
2023-02-28T13:57:47.351Z,101775.54
2023-02-28T14:00:23.522Z,101774.20
2023-02-28T14:03:01.060Z,101773.98
2023-02-28T14:05:17.864Z,101765.86
2023-02-28T14:07:50.068Z,101762.68
2023-02-28T14:10:09.358Z,101759.44
2023-02-28T14:12:57.542Z,101758.09
2023-02-28T14:15:37.969Z,101752.02
2023-02-28T14:17:55.346Z,101751.27
2023-02-28T14:20:17.353Z,101749.77
2023-02-28T14:22:50.493Z,101748.63
2023-02-28T14:25:26.411Z,101752.89
2023-02-28T14:27:53.267Z,101748.90
2023-02-28T14:30:15.265Z,101747.17
2023-02-28T14:32:37.193Z,101746.51
2023-02-28T14:35:17.304Z,101745.52
2023-02-28T14:37:33.733Z,101751.67
2023-02-28T14:39:47.348Z,101753.06
2023-02-28T14:42:04.183Z,101750.40
2023-02-28T14:44:25.470Z,101752.96
2023-02-28T14:46:40.480Z,101749.63
2023-02-28T14:48:53.188Z,101750.53
2023-02-28T14:51:06.016Z,101747.63
2023-02-28T14:53:22.176Z,101746.94
2023-02-28T14:55:36.914Z,101748.05
2023-02-28T14:58:04.331Z,101752.08
2023-02-28T15:00:32.552Z,101750.90
2023-02-28T15:02:45.405Z,101752.48
2023-02-28T15:05:01.881Z,101751.46
2023-02-28T15:07:15.579Z,101758.54
2023-02-28T15:09:28.093Z,101757.67
2023-02-28T15:11:41.427Z,101757.68
2023-02-28T15:13:56.394Z,101757.51
2023-02-28T15:16:19.718Z,101759.39
2023-02-28T15:18:45.251Z,101759.21
2023-02-28T15:21:06.664Z,101760.73
2023-02-28T15:23:22.788Z,101754.52
2023-02-28T15:25:36.093Z,101753.83
2023-02-28T15:27:53.121Z,101753.30
2023-02-28T15:30:16.210Z,101752.41
2023-02-28T15:32:34.315Z,101756.55
2023-02-28T15:34:47.335Z,101753.30
2023-02-28T15:36:59.900Z,101753.66
2023-02-28T15:39:25.199Z,101752.63
2023-02-28T15:41:41.838Z,101747.77
2023-02-28T15:44:30.878Z,101746.02
2023-02-28T15:46:54.281Z,101744.27
2023-02-28T15:49:20.019Z,101748.38
2023-02-28T15:51:37.063Z,101746.30
2023-02-28T15:53:56.966Z,101746.63
2023-02-28T15:56:25.455Z,101745.40
2023-02-28T15:58:38.539Z,101746.39
2023-02-28T16:01:05.006Z,101745.48
2023-02-28T16:03:28.954Z,101747.49
2023-02-28T16:05:41.462Z,101750.04
2023-02-28T16:07:55.849Z,101752.57
2023-02-28T16:10:10.894Z,101752.36
2023-02-28T16:12:28.441Z,101756.25
2023-02-28T16:14:41.392Z,101755.02
2023-02-28T16:16:58.150Z,101757.55
2023-02-28T16:19:10.825Z,101762.81
2023-02-28T16:21:24.104Z,101763.95
2023-02-28T16:23:36.726Z,101767.00
2023-02-28T16:25:49.328Z,101765.42
2023-02-28T16:28:02.739Z,101769.14
2023-02-28T16:30:22.312Z,101769.97
2023-02-28T16:32:37.255Z,101769.52
2023-02-28T16:34:49.848Z,101773.05
2023-02-28T16:37:02.467Z,101769.85
2023-02-28T16:39:15.025Z,101769.45
2023-02-28T16:41:29.288Z,101762.35
2023-02-28T16:43:42.102Z,101762.61
2023-02-28T16:46:01.186Z,101765.78
2023-02-28T16:48:16.676Z,101767.23
2023-02-28T16:50:33.505Z,101773.05
2023-02-28T16:52:47.019Z,101774.79
2023-02-28T16:55:01.149Z,101778.20
2023-02-28T16:57:22.662Z,101781.17
2023-02-28T16:59:35.200Z,101782.35
2023-02-28T17:01:47.816Z,101787.25
2023-02-28T17:04:00.475Z,101788.52
2023-02-28T17:06:20.171Z,101793.23
2023-02-28T17:08:33.149Z,101792.80
2023-02-28T17:10:46.079Z,101789.47
2023-02-28T17:13:13.013Z,101790.05
2023-02-28T17:15:27.228Z,101792.93
2023-02-28T17:17:40.987Z,101793.12
2023-02-28T17:19:53.524Z,101791.13
2023-02-28T17:22:06.053Z,101798.57
2023-02-28T17:24:28.873Z,101802.41
2023-02-28T17:26:43.406Z,101803.14
2023-02-28T17:28:57.909Z,101799.77
2023-02-28T17:31:10.699Z,101799.83
2023-02-28T17:33:24.089Z,101798.98
2023-02-28T17:35:36.728Z,101803.98
2023-02-28T17:37:50.044Z,101802.86
2023-02-28T17:40:03.684Z,101803.97
2023-02-28T17:42:16.204Z,101804.09
2023-02-28T17:44:29.174Z,101803.70
2023-02-28T17:46:43.211Z,101804.17
2023-02-28T17:48:55.748Z,101802.90
2023-02-28T17:51:11.720Z,101802.98
2023-02-28T17:53:24.356Z,101805.23
2023-02-28T17:55:37.403Z,101804.41
2023-02-28T17:57:49.945Z,101804.25
2023-02-28T18:00:07.473Z,101804.65
2023-02-28T18:02:20.432Z,101807.02
2023-02-28T18:04:33.007Z,101814.95
2023-02-28T18:06:50.604Z,101818.30
2023-02-28T18:09:03.530Z,101818.56
2023-02-28T18:11:19.269Z,101819.38
2023-02-28T18:13:31.793Z,101823.21
2023-02-28T18:15:44.497Z,101824.67
2023-02-28T18:17:57.134Z,101824.59
2023-02-28T18:20:11.404Z,101820.38
2023-02-28T18:22:23.955Z,101826.02
2023-02-28T18:24:36.718Z,101826.79
2023-02-28T18:26:49.331Z,101827.63
2023-02-28T18:29:01.867Z,101824.54
2023-02-28T18:31:18.537Z,101821.13
2023-02-28T18:33:31.133Z,101823.13
2023-02-28T18:35:44.794Z,101822.20
2023-02-28T18:37:57.442Z,101819.73
2023-02-28T18:40:10.775Z,101820.89
2023-02-28T18:42:23.351Z,101821.65
2023-02-28T18:44:37.811Z,101822.80
2023-02-28T18:46:50.788Z,101829.23
2023-02-28T18:49:03.396Z,101827.46
2023-02-28T18:51:23.078Z,101824.52
2023-02-28T18:53:36.703Z,101828.08
2023-02-28T18:55:49.316Z,101828.54
2023-02-28T18:58:01.923Z,101830.70
2023-02-28T19:00:18.215Z,101828.90
2023-02-28T19:02:30.739Z,101829.66
2023-02-28T19:04:43.298Z,101831.96
2023-02-28T19:06:56.072Z,101830.48
2023-02-28T19:09:09.312Z,101828.56
2023-02-28T19:11:22.235Z,101827.80
2023-02-28T19:13:34.845Z,101826.65
2023-02-28T19:15:48.333Z,101825.97
2023-02-28T19:18:01.154Z,101826.13
2023-02-28T19:20:13.783Z,101824.92
2023-02-28T19:22:26.415Z,101825.70
2023-02-28T19:24:38.963Z,101827.17
2023-02-28T19:26:51.480Z,101826.23
2023-02-28T19:29:05.102Z,101826.17
2023-02-28T19:31:22.798Z,101825.88
2023-02-28T19:33:35.388Z,101824.95
2023-02-28T19:35:48.586Z,101829.11
2023-02-28T19:38:01.473Z,101831.23
2023-02-28T19:40:14.176Z,101827.09
2023-02-28T19:42:29.866Z,101829.23
2023-02-28T19:44:43.719Z,101832.58
2023-02-28T19:46:56.238Z,101830.43
2023-02-28T19:49:08.762Z,101832.73
2023-02-28T19:51:22.766Z,101832.92
2023-02-28T19:53:37.512Z,101838.39
2023-02-28T19:55:52.093Z,101837.13
2023-02-28T19:58:05.394Z,101839.92
2023-02-28T20:00:19.050Z,101839.98
2023-02-28T20:02:31.752Z,101836.73
2023-02-28T20:04:48.836Z,101842.67
2023-02-28T20:07:01.527Z,101846.60
2023-02-28T20:09:14.141Z,101842.91
2023-02-28T20:11:26.692Z,101842.39
2023-02-28T20:13:39.627Z,101839.66
2023-02-28T20:15:52.265Z,101836.89
2023-02-28T20:18:04.800Z,101835.02
2023-02-28T20:20:17.415Z,101834.50
2023-02-28T20:22:30.144Z,101830.23
2023-02-28T20:24:43.638Z,101833.98
2023-02-28T20:26:57.536Z,101831.84
2023-02-28T20:29:10.201Z,101831.77
2023-02-28T20:31:25.447Z,101830.49
2023-02-28T20:33:38.018Z,101827.94
2023-02-28T20:35:58.763Z,101825.91
2023-02-28T20:38:11.668Z,101827.83
2023-02-28T20:40:24.314Z,101830.01
2023-02-28T20:42:37.313Z,101831.13
2023-02-28T20:44:49.934Z,101831.38
2023-02-28T20:47:02.608Z,101833.35
2023-02-28T20:49:15.871Z,101831.95
2023-02-28T20:51:28.519Z,101832.60
2023-02-28T20:53:41.062Z,101834.00
2023-02-28T20:55:59.373Z,101833.53
2023-02-28T20:58:11.935Z,101833.28
2023-02-28T21:00:26.350Z,101829.26
2023-02-28T21:02:39.010Z,101829.91
2023-02-28T21:04:51.638Z,101830.86
2023-02-28T21:07:04.575Z,101836.38
2023-02-28T21:09:17.673Z,101837.55
2023-02-28T21:11:32.680Z,101838.23
2023-02-28T21:13:46.104Z,101837.35
2023-02-28T21:16:04.177Z,101838.39
2023-02-28T21:18:16.805Z,101837.45
2023-02-28T21:20:29.414Z,101834.67
2023-02-28T21:22:41.991Z,101833.21
2023-02-28T21:24:54.595Z,101828.77
2023-02-28T21:27:07.214Z,101828.25
2023-02-28T21:29:19.733Z,101821.76
2023-02-28T21:31:34.477Z,101824.48
2023-02-28T21:33:47.936Z,101824.27
2023-02-28T21:36:06.694Z,101824.61
2023-02-28T21:38:19.468Z,101822.46
2023-02-28T21:40:33.612Z,101818.85
2023-02-28T21:42:46.160Z,101818.25
2023-02-28T21:44:58.874Z,101817.54
2023-02-28T21:47:12.023Z,101816.27
2023-02-28T21:49:24.590Z,101815.47
2023-02-28T21:51:38.967Z,101815.37
2023-02-28T21:53:51.683Z,101813.71
2023-02-28T21:56:07.108Z,101819.44
2023-02-28T21:58:19.869Z,101821.15
2023-02-28T22:00:32.414Z,101822.75
2023-02-28T22:02:45.087Z,101828.07
2023-02-28T22:05:03.493Z,101829.02
2023-02-28T22:07:18.109Z,101830.63
2023-02-28T22:09:31.304Z,101838.40
2023-02-28T22:11:43.964Z,101838.97
2023-02-28T22:13:58.876Z,101840.30
2023-02-28T22:16:17.558Z,101837.50
2023-02-28T22:18:30.477Z,101839.59
2023-02-28T22:20:43.044Z,101840.11
2023-02-28T22:22:55.952Z,101843.69
2023-02-28T22:25:09.549Z,101841.85
2023-02-28T22:27:22.078Z,101846.04
2023-02-28T22:29:34.675Z,101849.15
2023-02-28T22:31:47.416Z,101846.83
2023-02-28T22:34:03.172Z,101849.34
2023-02-28T22:36:18.165Z,101854.52
2023-02-28T22:38:35.185Z,101860.16
2023-02-28T22:40:47.721Z,101865.11
2023-02-28T22:43:00.277Z,101868.00
2023-02-28T22:45:13.360Z,101870.68
2023-02-28T22:47:26.507Z,101870.41
2023-02-28T22:49:39.032Z,101875.40
2023-02-28T22:51:51.588Z,101875.82
2023-02-28T22:54:04.599Z,101875.05
2023-02-28T22:56:19.626Z,101876.39
2023-02-28T22:58:32.408Z,101875.33
2023-02-28T23:00:44.978Z,101876.15
2023-02-28T23:02:57.677Z,101877.50
2023-02-28T23:05:11.945Z,101878.19
2023-02-28T23:07:24.828Z,101876.83
2023-02-28T23:09:37.756Z,101876.25
2023-02-28T23:11:51.184Z,101877.23
2023-02-28T23:14:04.579Z,101877.59
2023-02-28T23:16:17.160Z,101877.95
2023-02-28T23:18:29.711Z,101878.61
2023-02-28T23:20:42.299Z,101875.36
2023-02-28T23:22:55.458Z,101874.98
2023-02-28T23:25:08.145Z,101872.34
2023-02-28T23:27:20.637Z,101866.27
2023-02-28T23:29:34.183Z,101866.00
2023-02-28T23:31:47.653Z,101865.91
2023-02-28T23:34:00.709Z,101862.63
2023-02-28T23:36:15.368Z,101868.73
2023-02-28T23:38:27.953Z,101871.83
2023-02-28T23:40:41.061Z,101872.43
2023-02-28T23:42:53.624Z,101874.17
2023-02-28T23:45:06.882Z,101875.93
2023-02-28T23:47:19.491Z,101877.65
2023-02-28T23:49:32.063Z,101873.36
2023-02-28T23:51:44.645Z,101871.48
2023-02-28T23:53:57.237Z,101872.27
2023-02-28T23:56:14.694Z,101865.67
2023-02-28T23:58:31.252Z,101869.80
